Redding Ridge, Connecticut
Current Conditions -  °F | °C
As of 7:53 AM on Tuesday 21 Oct 2014 (Local Time) from KDXR Reporting Station
Overcast Overcast  
Wind Chill: 44°   Ceiling: 9000
Heat Index: 44°   Visibility: 8mi
Dew Point: 30°   Wind: 0mph
Humidity: 58%   Direction: NA
Pressure: 29.93"   Gusts: NA
Location:  41.31°N, 73.35°W
Report Text: KDXR 211153Z 00000KT 8SM OVC090 07/M01 A2993 RMK AO2 SLP137 T00671011 10072 20050 53003
Loading
Personal Weather Stations






























Interactive Weather Map
Tropical Storm Tracking
New forecast layout! Learn more

10-Day Weather Forecast

Advertisements
Track Severe Weather on mobile